sensor_id;sensor_type;location;lat;lon;timestamp;P1;durP1;ratioP1;P2;durP2;ratioP2
21301;SDS011;10810;48.270;9.996;2023-04-25T00:00:30;4.70;;;1.90;;
21301;SDS011;10810;48.270;9.996;2023-04-25T00:02:57;4.30;;;1.83;;
21301;SDS011;10810;48.270;9.996;2023-04-25T00:05:25;4.47;;;2.00;;
21301;SDS011;10810;48.270;9.996;2023-04-25T00:07:52;3.30;;;1.80;;
21301;SDS011;10810;48.270;9.996;2023-04-25T00:10:19;3.30;;;1.63;;
21301;SDS011;10810;48.270;9.996;2023-04-25T00:12:46;4.53;;;1.87;;
21301;SDS011;10810;48.270;9.996;2023-04-25T00:15:14;3.20;;;1.87;;
21301;SDS011;10810;48.270;9.996;2023-04-25T00:17:42;3.80;;;2.10;;
21301;SDS011;10810;48.270;9.996;2023-04-25T00:20:11;4.67;;;1.97;;
21301;SDS011;10810;48.270;9.996;2023-04-25T00:22:38;5.20;;;2.07;;
21301;SDS011;10810;48.270;9.996;2023-04-25T00:25:06;3.93;;;1.87;;
21301;SDS011;10810;48.270;9.996;2023-04-25T00:27:33;4.37;;;2.00;;
21301;SDS011;10810;48.270;9.996;2023-04-25T00:30:00;2.97;;;1.60;;
21301;SDS011;10810;48.270;9.996;2023-04-25T00:32:27;4.67;;;2.00;;
21301;SDS011;10810;48.270;9.996;2023-04-25T00:34:56;5.37;;;2.03;;
21301;SDS011;10810;48.270;9.996;2023-04-25T00:37:23;4.90;;;2.30;;
21301;SDS011;10810;48.270;9.996;2023-04-25T00:39:50;5.63;;;2.33;;
21301;SDS011;10810;48.270;9.996;2023-04-25T00:42:20;5.57;;;2.20;;
21301;SDS011;10810;48.270;9.996;2023-04-25T00:44:47;4.53;;;2.20;;
21301;SDS011;10810;48.270;9.996;2023-04-25T00:47:15;5.07;;;2.30;;
21301;SDS011;10810;48.270;9.996;2023-04-25T00:49:42;4.40;;;2.30;;
21301;SDS011;10810;48.270;9.996;2023-04-25T00:52:10;4.40;;;2.03;;
21301;SDS011;10810;48.270;9.996;2023-04-25T00:54:37;4.60;;;2.20;;
21301;SDS011;10810;48.270;9.996;2023-04-25T00:57:04;5.20;;;2.50;;
21301;SDS011;10810;48.270;9.996;2023-04-25T00:59:31;4.70;;;2.40;;
21301;SDS011;10810;48.270;9.996;2023-04-25T01:01:59;5.67;;;2.30;;
21301;SDS011;10810;48.270;9.996;2023-04-25T01:04:26;5.37;;;2.20;;
21301;SDS011;10810;48.270;9.996;2023-04-25T01:06:53;6.70;;;2.23;;
21301;SDS011;10810;48.270;9.996;2023-04-25T01:09:22;7.40;;;2.70;;
21301;SDS011;10810;48.270;9.996;2023-04-25T01:11:49;6.17;;;2.53;;
21301;SDS011;10810;48.270;9.996;2023-04-25T01:14:16;5.17;;;2.40;;
21301;SDS011;10810;48.270;9.996;2023-04-25T01:16:43;4.53;;;2.20;;
21301;SDS011;10810;48.270;9.996;2023-04-25T01:19:11;4.77;;;2.50;;
21301;SDS011;10810;48.270;9.996;2023-04-25T01:21:44;5.10;;;2.17;;
21301;SDS011;10810;48.270;9.996;2023-04-25T01:24:12;6.30;;;2.83;;
21301;SDS011;10810;48.270;9.996;2023-04-25T01:26:40;5.43;;;2.60;;
21301;SDS011;10810;48.270;9.996;2023-04-25T01:29:09;4.47;;;2.50;;
21301;SDS011;10810;48.270;9.996;2023-04-25T01:31:36;7.53;;;2.77;;
21301;SDS011;10810;48.270;9.996;2023-04-25T01:34:04;5.83;;;2.33;;
21301;SDS011;10810;48.270;9.996;2023-04-25T01:36:31;5.50;;;2.57;;
21301;SDS011;10810;48.270;9.996;2023-04-25T01:39:01;6.10;;;2.80;;
21301;SDS011;10810;48.270;9.996;2023-04-25T01:41:28;7.00;;;2.50;;
21301;SDS011;10810;48.270;9.996;2023-04-25T01:43:56;7.97;;;2.47;;
21301;SDS011;10810;48.270;9.996;2023-04-25T01:46:23;7.93;;;2.77;;
21301;SDS011;10810;48.270;9.996;2023-04-25T01:48:50;3.47;;;1.87;;
21301;SDS011;10810;48.270;9.996;2023-04-25T01:51:17;5.40;;;2.37;;
21301;SDS011;10810;48.270;9.996;2023-04-25T01:53:44;5.60;;;2.27;;
21301;SDS011;10810;48.270;9.996;2023-04-25T01:56:13;6.83;;;2.80;;
21301;SDS011;10810;48.270;9.996;2023-04-25T01:58:40;6.07;;;2.40;;
21301;SDS011;10810;48.270;9.996;2023-04-25T02:01:07;7.53;;;2.70;;
21301;SDS011;10810;48.270;9.996;2023-04-25T02:03:34;5.43;;;2.20;;
21301;SDS011;10810;48.270;9.996;2023-04-25T02:06:01;8.10;;;2.23;;
21301;SDS011;10810;48.270;9.996;2023-04-25T02:08:28;4.40;;;2.10;;
21301;SDS011;10810;48.270;9.996;2023-04-25T02:10:56;3.70;;;2.13;;
21301;SDS011;10810;48.270;9.996;2023-04-25T02:13:25;5.37;;;2.27;;
21301;SDS011;10810;48.270;9.996;2023-04-25T02:15:52;7.30;;;2.20;;
21301;SDS011;10810;48.270;9.996;2023-04-25T02:18:19;5.23;;;2.20;;
21301;SDS011;10810;48.270;9.996;2023-04-25T02:20:48;4.03;;;2.00;;
21301;SDS011;10810;48.270;9.996;2023-04-25T02:23:15;3.83;;;1.90;;
21301;SDS011;10810;48.270;9.996;2023-04-25T02:25:44;4.13;;;1.80;;
21301;SDS011;10810;48.270;9.996;2023-04-25T02:28:11;7.07;;;1.90;;
21301;SDS011;10810;48.270;9.996;2023-04-25T02:30:39;3.00;;;1.60;;
21301;SDS011;10810;48.270;9.996;2023-04-25T02:33:06;3.27;;;1.70;;
21301;SDS011;10810;48.270;9.996;2023-04-25T02:35:33;2.80;;;1.57;;
21301;SDS011;10810;48.270;9.996;2023-04-25T02:38:00;3.70;;;1.30;;
21301;SDS011;10810;48.270;9.996;2023-04-25T02:40:27;2.93;;;1.80;;
21301;SDS011;10810;48.270;9.996;2023-04-25T02:42:54;3.30;;;1.50;;
21301;SDS011;10810;48.270;9.996;2023-04-25T02:45:21;4.37;;;1.80;;
21301;SDS011;10810;48.270;9.996;2023-04-25T02:47:49;6.83;;;1.87;;
21301;SDS011;10810;48.270;9.996;2023-04-25T02:50:19;4.87;;;1.57;;
21301;SDS011;10810;48.270;9.996;2023-04-25T02:52:46;3.13;;;1.70;;
21301;SDS011;10810;48.270;9.996;2023-04-25T02:55:13;3.50;;;1.70;;
21301;SDS011;10810;48.270;9.996;2023-04-25T02:57:40;3.47;;;1.60;;
21301;SDS011;10810;48.270;9.996;2023-04-25T03:00:07;3.67;;;1.50;;
21301;SDS011;10810;48.270;9.996;2023-04-25T03:02:37;2.70;;;1.43;;
21301;SDS011;10810;48.270;9.996;2023-04-25T03:05:05;3.90;;;1.60;;
21301;SDS011;10810;48.270;9.996;2023-04-25T03:07:33;3.53;;;1.40;;
21301;SDS011;10810;48.270;9.996;2023-04-25T03:09:59;3.20;;;1.40;;
21301;SDS011;10810;48.270;9.996;2023-04-25T03:12:27;3.20;;;1.50;;
21301;SDS011;10810;48.270;9.996;2023-04-25T03:14:54;2.97;;;1.60;;
21301;SDS011;10810;48.270;9.996;2023-04-25T03:17:21;3.57;;;1.53;;
21301;SDS011;10810;48.270;9.996;2023-04-25T03:19:48;3.10;;;1.57;;
21301;SDS011;10810;48.270;9.996;2023-04-25T03:22:16;4.17;;;1.60;;
21301;SDS011;10810;48.270;9.996;2023-04-25T03:24:43;4.33;;;1.60;;
21301;SDS011;10810;48.270;9.996;2023-04-25T03:27:10;5.43;;;1.63;;
21301;SDS011;10810;48.270;9.996;2023-04-25T03:29:37;3.37;;;1.77;;
21301;SDS011;10810;48.270;9.996;2023-04-25T03:32:05;4.73;;;1.80;;
21301;SDS011;10810;48.270;9.996;2023-04-25T03:34:32;3.83;;;1.70;;
21301;SDS011;10810;48.270;9.996;2023-04-25T03:36:59;2.40;;;1.50;;
21301;SDS011;10810;48.270;9.996;2023-04-25T03:39:28;5.20;;;1.60;;
21301;SDS011;10810;48.270;9.996;2023-04-25T03:41:55;4.10;;;1.83;;
21301;SDS011;10810;48.270;9.996;2023-04-25T03:44:22;4.13;;;1.60;;
21301;SDS011;10810;48.270;9.996;2023-04-25T03:46:49;5.17;;;1.97;;
21301;SDS011;10810;48.270;9.996;2023-04-25T03:49:16;4.20;;;1.90;;
21301;SDS011;10810;48.270;9.996;2023-04-25T03:51:43;3.67;;;1.90;;
21301;SDS011;10810;48.270;9.996;2023-04-25T03:54:10;3.33;;;1.80;;
21301;SDS011;10810;48.270;9.996;2023-04-25T03:56:39;4.47;;;1.60;;
21301;SDS011;10810;48.270;9.996;2023-04-25T03:59:06;4.23;;;1.70;;
21301;SDS011;10810;48.270;9.996;2023-04-25T04:01:33;3.33;;;1.43;;
21301;SDS011;10810;48.270;9.996;2023-04-25T04:04:02;4.17;;;1.63;;
21301;SDS011;10810;48.270;9.996;2023-04-25T04:06:29;5.67;;;1.57;;
21301;SDS011;10810;48.270;9.996;2023-04-25T04:08:56;4.30;;;1.67;;
21301;SDS011;10810;48.270;9.996;2023-04-25T04:11:23;2.77;;;1.60;;
21301;SDS011;10810;48.270;9.996;2023-04-25T04:13:52;4.33;;;1.67;;
21301;SDS011;10810;48.270;9.996;2023-04-25T04:16:19;3.10;;;1.57;;
21301;SDS011;10810;48.270;9.996;2023-04-25T04:18:46;3.30;;;1.40;;
21301;SDS011;10810;48.270;9.996;2023-04-25T04:21:13;5.93;;;2.10;;
21301;SDS011;10810;48.270;9.996;2023-04-25T04:23:40;4.07;;;1.97;;
21301;SDS011;10810;48.270;9.996;2023-04-25T04:26:07;4.67;;;1.87;;
21301;SDS011;10810;48.270;9.996;2023-04-25T04:28:35;4.47;;;2.00;;
21301;SDS011;10810;48.270;9.996;2023-04-25T04:31:04;6.03;;;2.07;;
21301;SDS011;10810;48.270;9.996;2023-04-25T04:33:32;4.87;;;2.17;;
21301;SDS011;10810;48.270;9.996;2023-04-25T04:36:01;4.10;;;1.97;;
21301;SDS011;10810;48.270;9.996;2023-04-25T04:38:28;8.30;;;2.33;;
21301;SDS011;10810;48.270;9.996;2023-04-25T04:40:56;7.73;;;3.00;;
21301;SDS011;10810;48.270;9.996;2023-04-25T04:43:23;6.70;;;2.43;;
21301;SDS011;10810;48.270;9.996;2023-04-25T04:45:50;5.30;;;2.40;;
21301;SDS011;10810;48.270;9.996;2023-04-25T04:48:19;5.13;;;2.50;;
21301;SDS011;10810;48.270;9.996;2023-04-25T04:50:46;7.23;;;2.67;;
21301;SDS011;10810;48.270;9.996;2023-04-25T04:53:13;5.10;;;2.60;;
21301;SDS011;10810;48.270;9.996;2023-04-25T04:55:40;5.47;;;2.40;;
21301;SDS011;10810;48.270;9.996;2023-04-25T04:58:08;5.30;;;2.17;;
21301;SDS011;10810;48.270;9.996;2023-04-25T05:00:35;4.90;;;2.40;;
21301;SDS011;10810;48.270;9.996;2023-04-25T05:03:02;5.17;;;2.63;;
21301;SDS011;10810;48.270;9.996;2023-04-25T05:05:32;8.77;;;2.30;;
21301;SDS011;10810;48.270;9.996;2023-04-25T05:07:59;5.03;;;2.27;;
21301;SDS011;10810;48.270;9.996;2023-04-25T05:10:26;7.27;;;2.43;;
21301;SDS011;10810;48.270;9.996;2023-04-25T05:12:53;4.47;;;2.40;;
21301;SDS011;10810;48.270;9.996;2023-04-25T05:15:20;5.57;;;2.67;;
21301;SDS011;10810;48.270;9.996;2023-04-25T05:17:47;5.97;;;2.73;;
21301;SDS011;10810;48.270;9.996;2023-04-25T05:20:14;7.13;;;2.50;;
21301;SDS011;10810;48.270;9.996;2023-04-25T05:22:44;4.90;;;1.87;;
21301;SDS011;10810;48.270;9.996;2023-04-25T05:25:11;6.20;;;2.23;;
21301;SDS011;10810;48.270;9.996;2023-04-25T05:27:38;4.70;;;1.80;;
21301;SDS011;10810;48.270;9.996;2023-04-25T05:30:06;3.33;;;1.67;;
21301;SDS011;10810;48.270;9.996;2023-04-25T05:32:34;4.00;;;1.80;;
21301;SDS011;10810;48.270;9.996;2023-04-25T05:35:01;3.20;;;1.60;;
21301;SDS011;10810;48.270;9.996;2023-04-25T05:37:28;4.33;;;1.90;;
21301;SDS011;10810;48.270;9.996;2023-04-25T05:39:59;4.60;;;2.00;;
21301;SDS011;10810;48.270;9.996;2023-04-25T05:42:26;3.80;;;1.90;;
21301;SDS011;10810;48.270;9.996;2023-04-25T05:44:53;2.87;;;1.50;;
21301;SDS011;10810;48.270;9.996;2023-04-25T05:47:20;5.23;;;1.90;;
21301;SDS011;10810;48.270;9.996;2023-04-25T05:49:47;4.57;;;1.83;;
21301;SDS011;10810;48.270;9.996;2023-04-25T05:52:13;4.47;;;2.10;;
21301;SDS011;10810;48.270;9.996;2023-04-25T05:54:41;4.27;;;1.83;;
21301;SDS011;10810;48.270;9.996;2023-04-25T05:57:15;4.17;;;2.00;;
21301;SDS011;10810;48.270;9.996;2023-04-25T05:59:46;3.43;;;1.73;;
21301;SDS011;10810;48.270;9.996;2023-04-25T06:02:12;4.53;;;1.80;;
21301;SDS011;10810;48.270;9.996;2023-04-25T06:04:40;2.97;;;1.67;;
21301;SDS011;10810;48.270;9.996;2023-04-25T06:07:16;6.30;;;1.90;;
21301;SDS011;10810;48.270;9.996;2023-04-25T06:09:45;8.17;;;3.20;;
21301;SDS011;10810;48.270;9.996;2023-04-25T06:12:13;11.47;;;4.47;;
21301;SDS011;10810;48.270;9.996;2023-04-25T06:14:40;7.03;;;2.70;;
21301;SDS011;10810;48.270;9.996;2023-04-25T06:17:07;4.90;;;2.40;;
21301;SDS011;10810;48.270;9.996;2023-04-25T06:19:35;5.00;;;2.43;;
21301;SDS011;10810;48.270;9.996;2023-04-25T06:22:02;4.97;;;2.47;;
21301;SDS011;10810;48.270;9.996;2023-04-25T06:24:29;5.37;;;2.17;;
21301;SDS011;10810;48.270;9.996;2023-04-25T06:26:56;4.73;;;2.10;;
21301;SDS011;10810;48.270;9.996;2023-04-25T06:29:25;10.37;;;1.93;;
21301;SDS011;10810;48.270;9.996;2023-04-25T06:31:52;5.30;;;2.20;;
21301;SDS011;10810;48.270;9.996;2023-04-25T06:34:20;5.20;;;2.20;;
21301;SDS011;10810;48.270;9.996;2023-04-25T06:36:48;4.17;;;2.40;;
21301;SDS011;10810;48.270;9.996;2023-04-25T06:39:15;7.93;;;2.97;;
21301;SDS011;10810;48.270;9.996;2023-04-25T06:41:42;5.03;;;2.30;;
21301;SDS011;10810;48.270;9.996;2023-04-25T06:44:12;5.00;;;2.70;;
21301;SDS011;10810;48.270;9.996;2023-04-25T06:46:44;5.10;;;2.40;;
21301;SDS011;10810;48.270;9.996;2023-04-25T06:49:11;12.80;;;2.30;;
21301;SDS011;10810;48.270;9.996;2023-04-25T06:51:40;4.33;;;1.83;;
21301;SDS011;10810;48.270;9.996;2023-04-25T06:54:09;4.10;;;1.73;;
21301;SDS011;10810;48.270;9.996;2023-04-25T06:56:36;7.77;;;2.47;;
21301;SDS011;10810;48.270;9.996;2023-04-25T06:59:06;6.97;;;2.17;;
21301;SDS011;10810;48.270;9.996;2023-04-25T07:01:33;4.73;;;1.97;;
21301;SDS011;10810;48.270;9.996;2023-04-25T07:06:46;3.63;;;1.87;;
21301;SDS011;10810;48.270;9.996;2023-04-25T07:09:14;5.77;;;2.03;;
21301;SDS011;10810;48.270;9.996;2023-04-25T07:11:47;5.10;;;2.20;;
21301;SDS011;10810;48.270;9.996;2023-04-25T07:14:20;6.40;;;2.03;;
21301;SDS011;10810;48.270;9.996;2023-04-25T07:16:51;4.37;;;1.67;;
21301;SDS011;10810;48.270;9.996;2023-04-25T07:19:22;4.07;;;1.90;;
21301;SDS011;10810;48.270;9.996;2023-04-25T07:21:57;3.97;;;1.80;;
21301;SDS011;10810;48.270;9.996;2023-04-25T07:24:35;4.77;;;2.00;;
21301;SDS011;10810;48.270;9.996;2023-04-25T07:27:17;5.23;;;2.33;;
21301;SDS011;10810;48.270;9.996;2023-04-25T07:29:45;4.30;;;1.93;;
21301;SDS011;10810;48.270;9.996;2023-04-25T07:32:14;5.43;;;2.00;;
21301;SDS011;10810;48.270;9.996;2023-04-25T07:34:48;3.33;;;1.77;;
21301;SDS011;10810;48.270;9.996;2023-04-25T07:37:18;5.73;;;2.00;;
21301;SDS011;10810;48.270;9.996;2023-04-25T07:40:01;3.73;;;1.60;;
21301;SDS011;10810;48.270;9.996;2023-04-25T07:42:30;4.10;;;1.90;;
21301;SDS011;10810;48.270;9.996;2023-04-25T07:44:59;4.07;;;1.93;;
21301;SDS011;10810;48.270;9.996;2023-04-25T07:47:32;3.13;;;2.00;;
21301;SDS011;10810;48.270;9.996;2023-04-25T07:50:23;6.37;;;1.90;;
21301;SDS011;10810;48.270;9.996;2023-04-25T07:53:00;3.53;;;2.07;;
21301;SDS011;10810;48.270;9.996;2023-04-25T07:55:47;3.63;;;2.00;;
21301;SDS011;10810;48.270;9.996;2023-04-25T08:00:03;5.40;;;1.60;;
21301;SDS011;10810;48.270;9.996;2023-04-25T08:05:09;5.77;;;2.10;;
21301;SDS011;10810;48.270;9.996;2023-04-25T08:11:01;3.43;;;1.70;;
21301;SDS011;10810;48.270;9.996;2023-04-25T08:17:36;3.63;;;1.67;;
21301;SDS011;10810;48.270;9.996;2023-04-25T08:20:26;4.67;;;1.77;;
21301;SDS011;10810;48.270;9.996;2023-04-25T08:23:48;3.43;;;1.80;;
21301;SDS011;10810;48.270;9.996;2023-04-25T08:26:34;3.63;;;1.77;;
21301;SDS011;10810;48.270;9.996;2023-04-25T08:29:11;3.00;;;1.70;;
21301;SDS011;10810;48.270;9.996;2023-04-25T08:32:07;8.47;;;2.03;;
21301;SDS011;10810;48.270;9.996;2023-04-25T08:35:10;5.83;;;2.00;;
21301;SDS011;10810;48.270;9.996;2023-04-25T08:37:45;5.80;;;1.73;;
21301;SDS011;10810;48.270;9.996;2023-04-25T08:40:41;4.23;;;1.80;;
21301;SDS011;10810;48.270;9.996;2023-04-25T08:43:27;4.67;;;1.77;;
21301;SDS011;10810;48.270;9.996;2023-04-25T08:46:19;5.17;;;1.60;;
21301;SDS011;10810;48.270;9.996;2023-04-25T08:48:50;3.73;;;2.10;;
21301;SDS011;10810;48.270;9.996;2023-04-25T08:51:40;3.67;;;1.70;;
21301;SDS011;10810;48.270;9.996;2023-04-25T08:54:12;7.00;;;1.73;;
21301;SDS011;10810;48.270;9.996;2023-04-25T08:56:41;2.43;;;1.20;;
21301;SDS011;10810;48.270;9.996;2023-04-25T09:06:17;4.33;;;1.60;;
21301;SDS011;10810;48.270;9.996;2023-04-25T09:09:00;4.03;;;1.83;;
21301;SDS011;10810;48.270;9.996;2023-04-25T09:15:26;4.30;;;1.83;;
21301;SDS011;10810;48.270;9.996;2023-04-25T09:18:27;5.17;;;1.50;;
21301;SDS011;10810;48.270;9.996;2023-04-25T09:21:04;4.43;;;1.90;;
21301;SDS011;10810;48.270;9.996;2023-04-25T09:23:39;4.63;;;1.80;;
21301;SDS011;10810;48.270;9.996;2023-04-25T09:26:10;6.33;;;1.60;;
21301;SDS011;10810;48.270;9.996;2023-04-25T09:28:42;3.00;;;1.60;;
21301;SDS011;10810;48.270;9.996;2023-04-25T09:31:09;5.43;;;1.57;;
21301;SDS011;10810;48.270;9.996;2023-04-25T09:33:37;3.10;;;1.50;;
21301;SDS011;10810;48.270;9.996;2023-04-25T09:36:06;3.03;;;1.80;;
21301;SDS011;10810;48.270;9.996;2023-04-25T09:38:41;2.93;;;1.50;;
21301;SDS011;10810;48.270;9.996;2023-04-25T09:41:11;2.00;;;1.17;;
21301;SDS011;10810;48.270;9.996;2023-04-25T09:43:49;4.17;;;1.40;;
21301;SDS011;10810;48.270;9.996;2023-04-25T09:46:21;3.07;;;1.30;;
21301;SDS011;10810;48.270;9.996;2023-04-25T09:48:56;3.70;;;1.40;;
21301;SDS011;10810;48.270;9.996;2023-04-25T09:51:25;3.33;;;1.60;;
21301;SDS011;10810;48.270;9.996;2023-04-25T09:56:46;4.33;;;1.53;;
21301;SDS011;10810;48.270;9.996;2023-04-25T09:59:19;3.50;;;1.40;;
21301;SDS011;10810;48.270;9.996;2023-04-25T10:01:58;4.57;;;1.30;;
21301;SDS011;10810;48.270;9.996;2023-04-25T10:04:25;4.33;;;1.30;;
21301;SDS011;10810;48.270;9.996;2023-04-25T10:07:12;2.30;;;1.10;;
21301;SDS011;10810;48.270;9.996;2023-04-25T10:09:41;1.97;;;1.30;;
21301;SDS011;10810;48.270;9.996;2023-04-25T10:12:14;5.40;;;1.30;;
21301;SDS011;10810;48.270;9.996;2023-04-25T10:14:49;2.60;;;1.30;;
21301;SDS011;10810;48.270;9.996;2023-04-25T10:17:21;2.03;;;1.23;;
21301;SDS011;10810;48.270;9.996;2023-04-25T10:20:00;3.97;;;1.30;;
21301;SDS011;10810;48.270;9.996;2023-04-25T10:22:41;4.07;;;1.40;;
21301;SDS011;10810;48.270;9.996;2023-04-25T10:25:14;3.23;;;1.57;;
21301;SDS011;10810;48.270;9.996;2023-04-25T10:27:43;4.73;;;1.40;;
21301;SDS011;10810;48.270;9.996;2023-04-25T10:30:13;2.17;;;1.20;;
21301;SDS011;10810;48.270;9.996;2023-04-25T10:32:41;3.13;;;1.37;;
21301;SDS011;10810;48.270;9.996;2023-04-25T10:35:10;2.47;;;1.10;;
21301;SDS011;10810;48.270;9.996;2023-04-25T10:37:56;2.73;;;1.43;;
21301;SDS011;10810;48.270;9.996;2023-04-25T10:40:25;2.93;;;1.03;;
21301;SDS011;10810;48.270;9.996;2023-04-25T10:42:53;4.00;;;0.93;;
21301;SDS011;10810;48.270;9.996;2023-04-25T10:45:21;1.57;;;0.90;;
21301;SDS011;10810;48.270;9.996;2023-04-25T10:47:48;0.97;;;0.67;;
21301;SDS011;10810;48.270;9.996;2023-04-25T10:50:19;4.67;;;1.00;;
21301;SDS011;10810;48.270;9.996;2023-04-25T10:52:58;1.40;;;1.00;;
21301;SDS011;10810;48.270;9.996;2023-04-25T10:55:50;0.90;;;0.77;;
21301;SDS011;10810;48.270;9.996;2023-04-25T10:58:20;3.93;;;1.27;;
21301;SDS011;10810;48.270;9.996;2023-04-25T11:00:49;2.53;;;0.90;;
21301;SDS011;10810;48.270;9.996;2023-04-25T11:03:41;3.87;;;1.30;;
21301;SDS011;10810;48.270;9.996;2023-04-25T11:06:18;2.07;;;1.10;;
21301;SDS011;10810;48.270;9.996;2023-04-25T11:09:24;1.80;;;1.10;;
21301;SDS011;10810;48.270;9.996;2023-04-25T11:12:18;2.43;;;0.97;;
21301;SDS011;10810;48.270;9.996;2023-04-25T11:14:47;2.27;;;1.00;;
21301;SDS011;10810;48.270;9.996;2023-04-25T11:17:30;1.00;;;0.90;;
21301;SDS011;10810;48.270;9.996;2023-04-25T11:20:37;4.27;;;1.10;;
21301;SDS011;10810;48.270;9.996;2023-04-25T11:23:06;2.10;;;1.00;;
21301;SDS011;10810;48.270;9.996;2023-04-25T11:25:55;2.30;;;0.90;;
21301;SDS011;10810;48.270;9.996;2023-04-25T11:31:59;4.67;;;1.30;;
21301;SDS011;10810;48.270;9.996;2023-04-25T11:35:20;2.40;;;1.30;;
21301;SDS011;10810;48.270;9.996;2023-04-25T11:37:58;4.37;;;1.60;;
21301;SDS011;10810;48.270;9.996;2023-04-25T11:40:54;5.13;;;1.40;;
21301;SDS011;10810;48.270;9.996;2023-04-25T11:43:23;2.47;;;1.53;;
21301;SDS011;10810;48.270;9.996;2023-04-25T11:46:00;4.73;;;1.57;;
21301;SDS011;10810;48.270;9.996;2023-04-25T11:48:52;3.30;;;1.70;;
21301;SDS011;10810;48.270;9.996;2023-04-25T11:51:35;2.40;;;1.30;;
21301;SDS011;10810;48.270;9.996;2023-04-25T11:54:10;1.60;;;0.83;;
21301;SDS011;10810;48.270;9.996;2023-04-25T11:56:49;4.43;;;1.17;;
21301;SDS011;10810;48.270;9.996;2023-04-25T12:02:37;2.80;;;1.10;;
21301;SDS011;10810;48.270;9.996;2023-04-25T12:05:26;1.90;;;0.90;;
21301;SDS011;10810;48.270;9.996;2023-04-25T12:07:56;1.20;;;0.90;;
21301;SDS011;10810;48.270;9.996;2023-04-25T12:10:36;3.43;;;1.30;;
21301;SDS011;10810;48.270;9.996;2023-04-25T12:13:51;1.47;;;0.80;;
21301;SDS011;10810;48.270;9.996;2023-04-25T12:16:05;0.80;;;0.60;;
21301;SDS011;10810;48.270;9.996;2023-04-25T12:18:35;0.50;;;0.50;;
21301;SDS011;10810;48.270;9.996;2023-04-25T12:21:16;1.73;;;0.70;;
21301;SDS011;10810;48.270;9.996;2023-04-25T12:24:25;0.67;;;0.60;;
21301;SDS011;10810;48.270;9.996;2023-04-25T12:26:59;0.70;;;0.60;;
21301;SDS011;10810;48.270;9.996;2023-04-25T12:29:31;1.20;;;0.70;;
21301;SDS011;10810;48.270;9.996;2023-04-25T12:32:30;1.10;;;0.67;;
21301;SDS011;10810;48.270;9.996;2023-04-25T12:35:21;0.77;;;0.67;;
21301;SDS011;10810;48.270;9.996;2023-04-25T12:37:48;1.00;;;0.80;;
21301;SDS011;10810;48.270;9.996;2023-04-25T12:40:15;0.90;;;0.70;;
21301;SDS011;10810;48.270;9.996;2023-04-25T12:42:42;1.07;;;0.70;;
21301;SDS011;10810;48.270;9.996;2023-04-25T12:45:09;2.07;;;0.87;;
21301;SDS011;10810;48.270;9.996;2023-04-25T12:47:36;1.37;;;0.77;;
21301;SDS011;10810;48.270;9.996;2023-04-25T12:50:03;1.80;;;0.93;;
21301;SDS011;10810;48.270;9.996;2023-04-25T12:52:32;1.20;;;0.93;;
21301;SDS011;10810;48.270;9.996;2023-04-25T12:54:59;2.60;;;1.33;;
21301;SDS011;10810;48.270;9.996;2023-04-25T12:57:26;1.77;;;1.10;;
21301;SDS011;10810;48.270;9.996;2023-04-25T13:00:03;2.17;;;1.10;;
21301;SDS011;10810;48.270;9.996;2023-04-25T13:03:02;1.27;;;0.77;;
21301;SDS011;10810;48.270;9.996;2023-04-25T13:06:00;1.37;;;0.80;;
21301;SDS011;10810;48.270;9.996;2023-04-25T13:08:30;1.07;;;0.97;;
21301;SDS011;10810;48.270;9.996;2023-04-25T13:12:32;1.33;;;0.80;;
21301;SDS011;10810;48.270;9.996;2023-04-25T13:14:15;1.20;;;0.80;;
21301;SDS011;10810;48.270;9.996;2023-04-25T13:17:36;1.20;;;0.70;;
21301;SDS011;10810;48.270;9.996;2023-04-25T13:20:13;1.60;;;0.80;;
21301;SDS011;10810;48.270;9.996;2023-04-25T13:22:53;1.30;;;0.80;;
21301;SDS011;10810;48.270;9.996;2023-04-25T13:28:44;1.37;;;0.70;;
21301;SDS011;10810;48.270;9.996;2023-04-25T13:31:19;1.30;;;0.80;;
21301;SDS011;10810;48.270;9.996;2023-04-25T13:35:27;2.10;;;0.93;;
21301;SDS011;10810;48.270;9.996;2023-04-25T13:37:34;1.73;;;0.90;;
21301;SDS011;10810;48.270;9.996;2023-04-25T13:40:22;1.40;;;0.80;;
21301;SDS011;10810;48.270;9.996;2023-04-25T13:43:23;1.20;;;0.90;;
21301;SDS011;10810;48.270;9.996;2023-04-25T13:49:07;1.07;;;0.70;;
21301;SDS011;10810;48.270;9.996;2023-04-25T13:54:56;1.90;;;1.00;;
21301;SDS011;10810;48.270;9.996;2023-04-25T13:58:00;1.23;;;0.70;;
21301;SDS011;10810;48.270;9.996;2023-04-25T14:00:34;1.73;;;0.70;;
21301;SDS011;10810;48.270;9.996;2023-04-25T14:03:03;1.10;;;0.70;;
21301;SDS011;10810;48.270;9.996;2023-04-25T14:05:55;1.40;;;0.80;;
21301;SDS011;10810;48.270;9.996;2023-04-25T14:08:49;1.20;;;0.80;;
21301;SDS011;10810;48.270;9.996;2023-04-25T14:11:18;0.70;;;0.60;;
21301;SDS011;10810;48.270;9.996;2023-04-25T14:13:45;1.03;;;0.77;;
21301;SDS011;10810;48.270;9.996;2023-04-25T14:16:29;0.60;;;0.60;;
21301;SDS011;10810;48.270;9.996;2023-04-25T14:19:29;2.00;;;0.70;;
21301;SDS011;10810;48.270;9.996;2023-04-25T14:21:56;1.03;;;0.60;;
21301;SDS011;10810;48.270;9.996;2023-04-25T14:24:23;1.13;;;0.70;;
21301;SDS011;10810;48.270;9.996;2023-04-25T14:26:52;1.00;;;0.70;;
21301;SDS011;10810;48.270;9.996;2023-04-25T14:29:23;1.33;;;0.70;;
21301;SDS011;10810;48.270;9.996;2023-04-25T14:31:54;2.50;;;1.00;;
21301;SDS011;10810;48.270;9.996;2023-04-25T14:34:43;1.50;;;0.90;;
21301;SDS011;10810;48.270;9.996;2023-04-25T14:37:11;2.33;;;1.17;;
21301;SDS011;10810;48.270;9.996;2023-04-25T14:39:38;1.10;;;0.73;;
21301;SDS011;10810;48.270;9.996;2023-04-25T14:42:07;2.33;;;1.00;;
21301;SDS011;10810;48.270;9.996;2023-04-25T14:44:34;2.13;;;1.20;;
21301;SDS011;10810;48.270;9.996;2023-04-25T14:47:02;1.13;;;0.90;;
21301;SDS011;10810;48.270;9.996;2023-04-25T14:49:29;1.67;;;0.63;;
21301;SDS011;10810;48.270;9.996;2023-04-25T14:51:57;1.83;;;1.20;;
21301;SDS011;10810;48.270;9.996;2023-04-25T14:54:25;2.03;;;1.10;;
21301;SDS011;10810;48.270;9.996;2023-04-25T14:56:52;0.90;;;0.70;;
21301;SDS011;10810;48.270;9.996;2023-04-25T14:59:21;1.50;;;0.80;;
21301;SDS011;10810;48.270;9.996;2023-04-25T15:01:49;1.47;;;0.90;;
21301;SDS011;10810;48.270;9.996;2023-04-25T15:10:39;1.07;;;0.70;;
21301;SDS011;10810;48.270;9.996;2023-04-25T15:13:06;1.13;;;0.77;;
21301;SDS011;10810;48.270;9.996;2023-04-25T15:15:33;1.40;;;0.90;;
21301;SDS011;10810;48.270;9.996;2023-04-25T15:18:00;3.13;;;0.90;;
21301;SDS011;10810;48.270;9.996;2023-04-25T15:20:28;1.37;;;1.03;;
21301;SDS011;10810;48.270;9.996;2023-04-25T15:22:56;1.47;;;0.97;;
21301;SDS011;10810;48.270;9.996;2023-04-25T15:25:23;1.50;;;1.20;;
21301;SDS011;10810;48.270;9.996;2023-04-25T15:27:53;1.60;;;1.10;;
21301;SDS011;10810;48.270;9.996;2023-04-25T15:30:20;2.40;;;1.33;;
21301;SDS011;10810;48.270;9.996;2023-04-25T15:32:47;2.27;;;1.20;;
21301;SDS011;10810;48.270;9.996;2023-04-25T15:35:17;2.13;;;1.10;;
21301;SDS011;10810;48.270;9.996;2023-04-25T15:37:45;2.57;;;1.40;;
21301;SDS011;10810;48.270;9.996;2023-04-25T15:40:13;2.17;;;1.10;;
21301;SDS011;10810;48.270;9.996;2023-04-25T15:42:42;2.37;;;1.40;;
21301;SDS011;10810;48.270;9.996;2023-04-25T15:45:15;3.97;;;1.90;;
21301;SDS011;10810;48.270;9.996;2023-04-25T15:47:57;3.10;;;1.27;;
21301;SDS011;10810;48.270;9.996;2023-04-25T15:50:26;2.73;;;1.63;;
21301;SDS011;10810;48.270;9.996;2023-04-25T15:52:53;2.87;;;1.70;;
21301;SDS011;10810;48.270;9.996;2023-04-25T15:55:20;4.40;;;2.10;;
21301;SDS011;10810;48.270;9.996;2023-04-25T15:57:48;3.93;;;2.00;;
21301;SDS011;10810;48.270;9.996;2023-04-25T16:00:18;3.80;;;2.07;;
21301;SDS011;10810;48.270;9.996;2023-04-25T16:02:46;5.47;;;2.30;;
21301;SDS011;10810;48.270;9.996;2023-04-25T16:05:13;4.70;;;2.33;;
21301;SDS011;10810;48.270;9.996;2023-04-25T16:07:40;5.67;;;2.50;;
21301;SDS011;10810;48.270;9.996;2023-04-25T16:10:09;4.60;;;2.20;;